Time;durP1;ratioP1;P1;durP2;ratioP2;P2;SDS_P1;SDS_P2;PMS_P1;PMS_P2;Temp;Humidity;BMP_temperature;BMP_pressure;BME280_temperature;BME280_humidity;BME280_pressure;Samples;Min_cycle;Max_cycle;Signal;HPM_P1;HPM_P2
2023/03/06 00:02:10;;;;;;;10.00;6.70;;;;;;;9.11;53.89;94029.13;4929518;29;20201;-52
2023/03/06 00:04:37;;;;;;;10.57;7.60;;;;;;;9.10;53.66;94026.69;4929239;29;20222;-48
2023/03/06 00:07:04;;;;;;;10.60;6.87;;;;;;;9.09;53.79;94030.19;4929202;29;20191;-48
2023/03/06 00:09:30;;;;;;;12.90;7.80;;;;;;;9.07;53.77;94032.09;4954418;28;20193;-47
2023/03/06 00:11:57;;;;;;;9.33;7.10;;;;;;;9.02;53.76;94027.41;4989379;28;20224;-54
2023/03/06 00:14:25;;;;;;;9.30;6.80;;;;;;;9.04;53.86;94028.88;4989225;28;20224;-53
2023/03/06 00:16:54;;;;;;;9.90;7.33;;;;;;;9.01;53.71;94026.63;4989270;28;20200;-46
2023/03/06 00:19:21;;;;;;;9.30;6.77;;;;;;;9.01;53.64;94020.72;4989589;28;20185;-52
2023/03/06 00:21:48;;;;;;;12.53;7.90;;;;;;;8.99;53.69;94023.44;4989473;28;20193;-52
2023/03/06 00:24:15;;;;;;;10.33;7.93;;;;;;;8.95;53.82;94029.75;4989408;28;20189;-54
2023/03/06 00:26:42;;;;;;;10.23;7.00;;;;;;;8.95;53.68;94022.09;4989376;28;20197;-52
2023/03/06 00:29:09;;;;;;;12.17;7.60;;;;;;;8.85;53.63;94007.81;4989440;28;20201;-51
2023/03/06 00:31:37;;;;;;;9.70;7.03;;;;;;;8.93;53.70;94023.97;4990647;28;20285;-49
2023/03/06 00:34:04;;;;;;;11.37;8.10;;;;;;;8.93;53.71;94020.63;4992274;28;20259;-54
2023/03/06 00:36:31;;;;;;;13.77;7.73;;;;;;;8.91;53.44;94017.44;4991765;28;20276;-52
2023/03/06 00:38:58;;;;;;;10.10;7.13;;;;;;;8.90;53.58;94013.28;4992976;28;20208;-50
2023/03/06 00:41:25;;;;;;;9.33;7.10;;;;;;;8.90;53.51;94020.94;4991648;28;20200;-51
2023/03/06 00:43:52;;;;;;;11.10;7.53;;;;;;;8.90;53.50;94015.84;4992441;28;20283;-51
2023/03/06 00:46:19;;;;;;;12.13;7.53;;;;;;;8.89;53.32;94019.31;4992009;28;20263;-53
2023/03/06 00:48:47;;;;;;;11.40;7.83;;;;;;;8.91;53.50;94020.00;4991976;28;20728;-47
2023/03/06 00:51:15;;;;;;;12.70;7.93;;;;;;;8.90;53.32;94011.53;4992094;28;20193;-47
2023/03/06 00:53:42;;;;;;;11.50;7.90;;;;;;;8.92;53.11;94024.13;4992377;28;20300;-52
2023/03/06 00:56:09;;;;;;;13.70;7.37;;;;;;;8.93;53.15;94020.63;4992074;28;20697;-49
2023/03/06 00:58:36;;;;;;;11.30;7.10;;;;;;;8.93;53.30;94016.34;4992205;28;20288;-51
2023/03/06 01:01:03;;;;;;;12.07;7.47;;;;;;;8.90;53.15;94005.66;4991868;28;20225;-48
2023/03/06 01:03:30;;;;;;;12.60;7.30;;;;;;;8.95;52.92;94009.34;4991528;28;20244;-47
2023/03/06 01:05:58;;;;;;;13.17;7.50;;;;;;;8.99;52.86;94009.88;4991807;28;20646;-49
2023/03/06 01:08:25;;;;;;;10.53;7.87;;;;;;;9.01;52.89;94015.63;4991718;28;20204;-45
2023/03/06 01:10:52;;;;;;;11.50;6.83;;;;;;;9.00;52.64;94004.63;4991465;28;20670;-51
2023/03/06 01:13:18;;;;;;;10.47;7.27;;;;;;;9.02;52.80;94001.91;4991608;28;20190;-52
2023/03/06 01:15:45;;;;;;;10.73;7.87;;;;;;;8.98;52.81;93990.41;4991843;28;20256;-48
2023/03/06 01:18:12;;;;;;;10.33;6.67;;;;;;;9.02;52.62;94005.28;4991708;28;20197;-51
2023/03/06 01:20:39;;;;;;;13.90;7.80;;;;;;;9.02;52.55;94007.84;4991615;28;20209;-49
2023/03/06 01:23:07;;;;;;;12.33;7.30;;;;;;;8.97;52.52;93992.16;4991727;28;20212;-54
2023/03/06 01:25:34;;;;;;;11.77;6.87;;;;;;;9.03;52.56;93998.44;4990724;28;20212;-51
2023/03/06 01:28:01;;;;;;;9.77;7.53;;;;;;;9.03;52.61;94006.09;4990240;28;20248;-52
2023/03/06 01:30:27;;;;;;;10.07;6.67;;;;;;;9.03;52.51;94006.09;4991523;28;20247;-49
2023/03/06 01:32:54;;;;;;;16.27;7.63;;;;;;;9.02;52.37;94005.28;4991565;28;20704;-51
2023/03/06 01:35:21;;;;;;;11.90;8.00;;;;;;;9.02;52.43;94000.19;4991213;28;20605;-51
2023/03/06 01:37:48;;;;;;;10.17;7.00;;;;;;;8.99;52.33;93997.94;4991755;28;20207;-50
2023/03/06 01:40:16;;;;;;;13.87;7.17;;;;;;;9.02;52.46;94001.91;4990533;28;20658;-53
2023/03/06 01:42:43;;;;;;;11.83;6.80;;;;;;;9.02;52.45;94002.75;4990852;28;20808;-54
2023/03/06 01:45:43;;;;;;;9.20;7.00;;;;;;;9.01;52.33;94000.31;4990867;28;20194;-50
2023/03/06 01:48:09;;;;;;;9.10;6.83;;;;;;;8.98;52.28;93988.69;4991442;28;20541;-48
2023/03/06 01:50:37;;;;;;;15.23;6.57;;;;;;;8.99;52.46;93997.94;4990538;28;20178;-49
2023/03/06 01:53:06;;;;;;;11.90;7.60;;;;;;;8.98;52.51;93998.06;4989598;28;20197;-51
2023/03/06 01:55:36;;;;;;;11.00;6.87;;;;;;;8.97;52.40;93992.16;4990787;28;20632;-49
2023/03/06 01:58:07;;;;;;;12.37;7.23;;;;;;;8.96;52.51;93998.19;4990971;28;20203;-48
2023/03/06 02:00:35;;;;;;;9.77;7.30;;;;;;;8.96;52.56;94002.50;4990951;28;20190;-49
2023/03/06 02:03:07;;;;;;;8.87;6.63;;;;;;;8.93;52.45;93993.38;4990931;28;20665;-55
2023/03/06 02:05:34;;;;;;;11.57;7.43;;;;;;;8.93;52.57;94000.25;4990955;28;20270;-48
2023/03/06 02:08:02;;;;;;;10.57;6.87;;;;;;;8.92;52.49;94002.00;4990789;28;20201;-48
2023/03/06 02:10:29;;;;;;;12.33;7.37;;;;;;;8.86;52.34;93987.28;4990448;28;20212;-47
2023/03/06 02:12:57;;;;;;;10.47;6.50;;;;;;;8.91;52.46;93990.19;4990449;28;20189;-50
2023/03/06 02:15:28;;;;;;;9.07;6.70;;;;;;;8.89;52.31;93997.16;4990283;28;20228;-50
2023/03/06 02:17:55;;;;;;;13.63;7.37;;;;;;;8.88;52.25;93997.31;4989489;28;20185;-49
2023/03/06 02:20:28;;;;;;;9.40;7.40;;;;;;;8.88;52.42;93994.78;4990833;28;20189;-49
2023/03/06 02:23:00;;;;;;;9.93;7.07;;;;;;;8.86;52.50;93996.69;4990338;28;20200;-51
2023/03/06 02:25:34;;;;;;;11.57;8.00;;;;;;;8.85;52.15;93987.41;4990333;28;20204;-48
2023/03/06 02:28:02;;;;;;;9.93;6.87;;;;;;;8.85;52.31;93995.88;4990557;28;20192;-46
2023/03/06 02:30:30;;;;;;;9.87;6.80;;;;;;;8.86;52.37;94001.78;4990215;28;20665;-47
2023/03/06 02:32:57;;;;;;;9.77;7.27;;;;;;;8.84;52.26;94001.09;4990223;28;20658;-48
2023/03/06 02:35:25;;;;;;;10.27;7.20;;;;;;;8.76;52.42;93995.00;4989996;28;20228;-46
2023/03/06 02:37:52;;;;;;;10.03;6.57;;;;;;;8.80;52.39;94003.94;4989905;28;20189;-49
2023/03/06 02:40:21;;;;;;;8.70;6.77;;;;;;;8.81;52.42;94007.31;4989956;28;20197;-53
2023/03/06 02:42:51;;;;;;;9.13;6.77;;;;;;;8.81;52.03;94007.31;4990217;28;20189;-52
2023/03/06 02:45:23;;;;;;;10.03;6.87;;;;;;;8.79;52.57;94004.88;4990233;28;21126;-51
2023/03/06 02:47:50;;;;;;;8.67;6.70;;;;;;;8.76;52.35;94010.28;4990203;28;20189;-48
2023/03/06 02:50:17;;;;;;;8.33;6.53;;;;;;;8.77;52.19;94013.63;4989878;28;20284;-52
2023/03/06 02:52:44;;;;;;;10.87;6.97;;;;;;;8.77;52.34;94004.25;4989899;28;20204;-53
2023/03/06 02:55:11;;;;;;;7.57;6.53;;;;;;;8.78;52.38;94010.94;4988750;28;20236;-51
2023/03/06 02:57:38;;;;;;;10.93;6.83;;;;;;;8.78;52.33;94008.38;4989849;28;20197;-46
2023/03/06 03:00:09;;;;;;;7.80;6.57;;;;;;;8.78;52.25;94008.38;4990243;28;20185;-48
2023/03/06 03:02:36;;;;;;;10.43;6.70;;;;;;;8.77;52.25;94006.78;4989921;28;20197;-49
2023/03/06 03:05:02;;;;;;;9.30;6.53;;;;;;;8.78;52.38;94010.94;4989988;28;20185;-47
2023/03/06 03:07:29;;;;;;;9.00;5.93;;;;;;;8.77;52.24;94006.78;4989831;28;20196;-47
2023/03/06 03:09:56;;;;;;;10.37;7.27;;;;;;;8.76;52.17;94007.75;4989530;28;20193;-45
2023/03/06 03:12:23;;;;;;;11.67;7.17;;;;;;;8.77;51.98;94009.34;4989470;28;20197;-46
2023/03/06 03:14:50;;;;;;;9.60;6.37;;;;;;;8.77;52.40;94006.00;4989675;28;20689;-52
2023/03/06 03:17:18;;;;;;;9.03;6.50;;;;;;;8.75;52.40;93997.66;4989498;28;20204;-47
2023/03/06 03:19:45;;;;;;;10.57;7.20;;;;;;;8.75;52.31;94000.22;4990217;28;20208;-47
2023/03/06 03:22:11;;;;;;;8.77;7.03;;;;;;;8.75;52.29;94005.31;4989492;28;20192;-45
2023/03/06 03:24:38;;;;;;;9.30;7.07;;;;;;;8.74;52.19;94014.72;4989773;28;20697;-51
2023/03/06 03:27:05;;;;;;;9.20;6.73;;;;;;;8.74;52.37;94008.81;4989795;28;20204;-49
2023/03/06 03:29:32;;;;;;;9.87;7.63;;;;;;;8.74;52.52;94001.19;4989259;28;20181;-46
2023/03/06 03:31:59;;;;;;;9.30;7.37;;;;;;;8.68;52.44;93996.63;4989525;28;20185;-49
2023/03/06 03:34:27;;;;;;;10.03;7.30;;;;;;;8.72;52.47;94006.44;4989431;28;20260;-53
2023/03/06 03:36:54;;;;;;;8.80;6.87;;;;;;;8.72;52.62;94010.69;4989298;28;20192;-46
2023/03/06 03:39:21;;;;;;;8.53;6.30;;;;;;;8.70;52.45;94012.59;4989803;28;20185;-46
2023/03/06 03:41:48;;;;;;;11.33;7.50;;;;;;;8.70;52.63;94015.16;4989183;28;20197;-52
2023/03/06 03:44:15;;;;;;;9.20;6.97;;;;;;;8.69;52.49;94016.09;4989486;28;20665;-46
2023/03/06 03:46:41;;;;;;;9.70;5.97;;;;;;;8.68;52.64;94022.13;4989286;28;20208;-46
2023/03/06 03:49:08;;;;;;;10.30;7.77;;;;;;;8.67;52.59;94016.22;4989430;28;20216;-47
2023/03/06 03:51:36;;;;;;;10.10;6.83;;;;;;;8.67;52.54;94016.22;4989801;28;20185;-45
2023/03/06 03:54:04;;;;;;;13.50;8.03;;;;;;;8.67;52.41;94023.06;4989111;28;20205;-48
2023/03/06 03:56:32;;;;;;;12.37;7.13;;;;;;;8.68;52.34;94027.22;4989493;28;20221;-48
2023/03/06 03:58:59;;;;;;;10.23;6.83;;;;;;;8.70;52.35;94038.09;4989125;28;20189;-48
2023/03/06 04:01:26;;;;;;;9.30;7.03;;;;;;;8.63;52.48;94027.66;4989672;28;20196;-50
2023/03/06 04:03:52;;;;;;;10.97;7.07;;;;;;;8.65;52.28;94030.88;4988781;28;20197;-48
2023/03/06 04:06:19;;;;;;;8.60;6.57;;;;;;;8.72;52.24;94034.47;4990344;28;20185;-47
2023/03/06 04:08:48;;;;;;;9.57;6.87;;;;;;;8.72;52.33;94041.28;4992644;28;20250;-49
2023/03/06 04:11:15;;;;;;;10.87;6.30;;;;;;;8.70;52.50;94036.34;4993282;28;20189;-45
2023/03/06 04:13:41;;;;;;;11.97;7.30;;;;;;;8.73;52.28;94043.72;4992542;28;20197;-47
2023/03/06 04:16:08;;;;;;;9.57;6.90;;;;;;;8.66;52.48;94027.38;4992922;28;20223;-47
2023/03/06 04:18:35;;;;;;;10.80;7.83;;;;;;;8.74;52.53;94044.50;4992707;28;20701;-48
2023/03/06 04:21:02;;;;;;;12.20;8.23;;;;;;;8.76;52.34;94056.19;4992706;28;20562;-53
2023/03/06 04:23:29;;;;;;;10.73;7.17;;;;;;;8.75;52.44;94049.44;4992897;28;20193;-51
2023/03/06 04:25:57;;;;;;;10.53;7.63;;;;;;;8.79;52.03;94050.78;4992702;28;20692;-48
2023/03/06 04:28:24;;;;;;;12.57;7.37;;;;;;;8.79;52.60;94050.78;4992482;28;20196;-51
2023/03/06 04:30:51;;;;;;;11.93;7.87;;;;;;;8.75;52.77;94052.00;4992273;28;20193;-46
2023/03/06 04:33:18;;;;;;;10.03;7.47;;;;;;;8.81;52.57;94053.19;4992758;28;20220;-47
2023/03/06 04:35:45;;;;;;;10.10;8.03;;;;;;;8.81;52.51;94055.75;4992248;28;20228;-46
2023/03/06 04:38:12;;;;;;;11.73;7.67;;;;;;;8.79;52.52;94060.97;4992568;28;20630;-48
2023/03/06 04:40:39;;;;;;;13.43;8.67;;;;;;;8.80;52.45;94059.22;4992545;28;20202;-46
2023/03/06 04:43:07;;;;;;;10.67;8.23;;;;;;;8.84;52.46;94055.44;4991991;28;20244;-45
2023/03/06 04:45:34;;;;;;;14.50;8.47;;;;;;;8.83;52.55;94053.84;4991806;28;20203;-45
2023/03/06 04:48:01;;;;;;;11.10;7.90;;;;;;;8.85;52.45;94054.53;4979963;28;20870;-52
2023/03/06 04:50:31;;;;;;;8.70;7.80;;;;;;;8.88;52.52;94054.22;4991500;28;20220;-46
2023/03/06 04:52:59;;;;;;;10.47;7.53;;;;;;;8.89;52.43;94070.31;4992265;28;20203;-45
2023/03/06 04:55:26;;;;;;;12.10;8.03;;;;;;;8.88;52.43;94056.75;4992389;28;20687;-49
2023/03/06 04:57:53;;;;;;;12.33;8.40;;;;;;;8.86;52.70;94058.66;4992103;28;20232;-53
2023/03/06 05:00:23;;;;;;;12.13;9.33;;;;;;;8.84;52.62;94060.53;4992495;28;20185;-51
2023/03/06 05:02:51;;;;;;;10.97;8.37;;;;;;;8.90;52.52;94060.00;4992249;28;20205;-54
2023/03/06 05:05:18;;;;;;;12.43;9.03;;;;;;;8.91;52.41;94069.22;4992031;28;20225;-52
2023/03/06 05:07:46;;;;;;;13.43;8.43;;;;;;;8.92;52.44;94062.38;4991601;28;20715;-53
2023/03/06 05:10:15;;;;;;;13.37;8.70;;;;;;;8.90;52.32;94060.00;4992373;28;20201;-54
2023/03/06 05:12:42;;;;;;;15.83;9.17;;;;;;;8.92;52.64;94062.38;4991805;28;20666;-51
2023/03/06 05:15:11;;;;;;;14.57;9.27;;;;;;;8.91;52.56;94066.69;4992077;28;20235;-50
2023/03/06 05:17:39;;;;;;;11.47;8.30;;;;;;;8.91;52.64;94066.69;4991277;28;20194;-57
2023/03/06 05:20:08;;;;;;;13.17;8.33;;;;;;;8.94;52.64;94075.81;4991073;28;20204;-55
2023/03/06 05:22:35;;;;;;;12.87;8.97;;;;;;;8.95;52.67;94080.75;4991229;28;20197;-51
2023/03/06 05:25:02;;;;;;;11.53;8.17;;;;;;;8.96;52.43;94081.56;4991169;28;20193;-49
2023/03/06 05:27:28;;;;;;;12.53;8.40;;;;;;;8.96;52.52;94079.81;4991138;28;20674;-53
2023/03/06 05:29:55;;;;;;;10.60;8.67;;;;;;;8.95;52.54;94073.09;4991100;28;20658;-49
2023/03/06 05:32:23;;;;;;;12.47;8.80;;;;;;;8.92;52.62;94065.72;4991391;28;20193;-45
2023/03/06 05:34:51;;;;;;;12.73;9.27;;;;;;;8.96;52.52;94063.72;4991422;28;20201;-51
2023/03/06 05:37:18;;;;;;;11.13;8.70;;;;;;;8.97;52.53;94071.19;4991019;28;20189;-52
2023/03/06 05:39:45;;;;;;;12.10;9.00;;;;;;;8.98;52.50;94075.38;4991403;28;20577;-47
2023/03/06 05:42:12;;;;;;;11.90;8.57;;;;;;;8.99;52.62;94071.88;4991391;28;20189;-51
2023/03/06 05:44:40;;;;;;;10.53;8.43;;;;;;;9.01;52.48;94079.38;4990918;28;20252;-49
2023/03/06 05:47:07;;;;;;;11.43;8.70;;;;;;;9.01;52.34;94081.91;4990851;28;20640;-48
2023/03/06 05:49:35;;;;;;;15.57;9.47;;;;;;;9.09;52.38;94084.56;4990878;28;20228;-51
2023/03/06 05:52:05;;;;;;;14.37;9.23;;;;;;;9.19;52.31;94087.03;4991499;28;20247;-46
2023/03/06 05:54:33;;;;;;;13.20;8.10;;;;;;;9.31;52.22;94085.91;4990985;28;20279;-47
2023/03/06 05:57:00;;;;;;;12.97;9.37;;;;;;;9.47;51.92;94096.25;4990668;28;20220;-48
2023/03/06 05:59:27;;;;;;;12.50;9.47;;;;;;;9.65;51.90;94101.38;4990689;28;20633;-46
2023/03/06 06:01:55;;;;;;;12.00;9.13;;;;;;;9.82;51.58;94094.63;4991070;28;20280;-49
2023/03/06 06:04:22;;;;;;;11.90;8.63;;;;;;;10.02;51.25;94102.94;4991126;28;20221;-45
2023/03/06 06:06:52;;;;;;;13.47;8.37;;;;;;;10.17;51.11;94104.00;4990961;28;20837;-45
2023/03/06 06:09:22;;;;;;;16.30;10.13;;;;;;;10.33;51.07;94108.44;4989938;28;20284;-44
2023/03/06 06:11:51;;;;;;;10.87;8.50;;;;;;;10.45;50.85;94107.25;4989313;28;20185;-45
2023/03/06 06:14:18;;;;;;;11.03;8.70;;;;;;;10.60;50.77;94114.34;4990455;28;20697;-45
2023/03/06 06:16:45;;;;;;;12.17;8.10;;;;;;;10.75;50.69;94111.06;4990505;28;20224;-53
2023/03/06 06:19:17;;;;;;;11.70;9.10;;;;;;;10.93;50.56;94110.19;4990751;28;20185;-47
2023/03/06 06:21:45;;;;;;;12.70;9.10;;;;;;;11.25;50.58;94115.41;4991227;28;20186;-51
2023/03/06 06:24:12;;;;;;;12.07;8.27;;;;;;;11.74;50.66;94125.75;4990603;28;20733;-53
2023/03/06 06:26:41;;;;;;;11.63;8.53;;;;;;;12.30;50.87;94113.09;4990951;28;20189;-50
2023/03/06 06:29:07;;;;;;;10.10;7.00;;;;;;;13.07;69.38;94116.72;4990199;28;20203;-48
2023/03/06 06:31:36;;;;;;;10.60;7.07;;;;;;;14.14;66.68;94109.19;4990336;28;20189;-50
2023/03/06 06:34:03;;;;;;;13.90;6.60;;;;;;;15.16;62.89;94112.03;4990603;28;20297;-49
2023/03/06 06:36:30;;;;;;;10.70;6.90;;;;;;;16.05;60.25;94111.78;4990353;28;20224;-52
2023/03/06 06:38:57;;;;;;;22.17;13.93;;;;;;;16.90;65.51;94100.50;4990736;28;20204;-53
2023/03/06 06:41:24;;;;;;;27.23;14.67;;;;;;;17.71;64.60;94112.75;4990914;28;20185;-54
2023/03/06 06:43:53;;;;;;;17.50;12.27;;;;;;;18.43;58.71;94119.78;4990643;28;20189;-56
2023/03/06 06:46:20;;;;;;;17.47;11.37;;;;;;;19.10;56.26;94117.13;4990556;28;20193;-55
2023/03/06 06:48:48;;;;;;;12.67;9.40;;;;;;;19.75;54.22;94129.06;4990742;28;20188;-50
2023/03/06 06:51:15;;;;;;;13.43;9.00;;;;;;;20.39;52.34;94129.06;4990657;28;20190;-53
2023/03/06 06:53:42;;;;;;;12.20;8.67;;;;;;;20.95;50.72;94131.59;4990788;28;20200;-56
2023/03/06 06:56:09;;;;;;;10.23;8.43;;;;;;;21.53;49.16;94130.38;4990010;28;20254;-48
2023/03/06 06:58:35;;;;;;;11.80;7.43;;;;;;;22.09;48.29;94136.25;4990621;28;20230;-58
2023/03/06 07:01:07;;;;;;;10.95;6.97;;;;;;;22.65;46.94;94137.63;4990158;28;20188;-54
2023/03/06 07:03:34;;;;;;;14.43;6.78;;;;;;;23.18;45.63;94141.94;4990791;28;20268;-58
2023/03/06 07:06:01;;;;;;;10.18;7.00;;;;;;;23.67;44.96;94140.63;4990455;28;20193;-48
2023/03/06 07:08:28;;;;;;;9.05;6.65;;;;;;;24.17;44.00;94147.78;4990318;28;20288;-50
2023/03/06 07:10:55;;;;;;;8.95;7.18;;;;;;;24.64;42.93;94138.91;4990557;28;20343;-53
2023/03/06 07:13:22;;;;;;;8.80;6.55;;;;;;;25.10;42.36;94144.81;4990297;28;20285;-53
2023/03/06 07:15:49;;;;;;;8.68;6.93;;;;;;;25.52;41.54;94129.41;4990145;28;20233;-53
2023/03/06 07:18:18;;;;;;;9.02;6.60;;;;;;;25.92;40.44;94139.56;4990007;28;20197;-53
2023/03/06 07:20:44;;;;;;;9.02;6.55;;;;;;;26.30;40.38;94155.41;4990772;28;20239;-57
2023/03/06 07:23:12;;;;;;;8.75;6.00;;;;;;;26.68;39.51;94142.06;4990556;28;20185;-54
2023/03/06 07:25:39;;;;;;;9.05;5.93;;;;;;;27.05;38.90;94151.78;4990826;28;20185;-55
2023/03/06 07:28:06;;;;;;;9.35;6.30;;;;;;;27.37;38.52;94146.47;4990094;28;20188;-52
2023/03/06 07:30:33;;;;;;;9.02;6.20;;;;;;;27.67;38.33;94143.19;4990419;28;20670;-48
2023/03/06 07:33:00;;;;;;;11.98;6.35;;;;;;;27.92;38.09;94145.13;4990095;28;20196;-54
2023/03/06 07:35:29;;;;;;;9.70;5.68;;;;;;;28.23;37.27;94148.59;4990413;28;20292;-54
2023/03/06 07:37:56;;;;;;;7.75;5.93;;;;;;;28.48;37.12;94150.50;4990011;28;20578;-50
2023/03/06 07:40:23;;;;;;;7.25;5.90;;;;;;;28.73;36.76;94154.22;4990235;28;20189;-55
2023/03/06 07:42:50;;;;;;;10.15;6.25;;;;;;;28.94;36.40;94158.41;4993541;28;20200;-53
2023/03/06 07:45:16;;;;;;;10.15;5.57;;;;;;;29.14;36.36;94159.44;4994173;28;20197;-55
2023/03/06 07:47:43;;;;;;;10.23;6.25;;;;;;;29.34;35.96;94159.41;4994225;28;20181;-55
2023/03/06 07:50:11;;;;;;;5.90;5.30;;;;;;;29.51;35.79;94161.72;4993718;28;20688;-51
2023/03/06 07:52:40;;;;;;;8.18;5.72;;;;;;;29.68;35.83;94162.22;4993922;28;20696;-56
2023/03/06 07:55:08;;;;;;;8.63;5.95;;;;;;;29.83;35.06;94164.00;4993017;28;20583;-48
2023/03/06 07:57:35;;;;;;;6.35;5.68;;;;;;;29.95;35.30;94158.41;4993373;28;20659;-48
2023/03/06 08:00:02;;;;;;;8.18;5.63;;;;;;;30.06;35.12;94149.38;4992967;28;20251;-48
2023/03/06 08:02:29;;;;;;;6.85;5.50;;;;;;;30.17;34.88;94152.78;4993724;28;20181;-47
2023/03/06 08:04:56;;;;;;;6.65;5.68;;;;;;;30.27;34.80;94159.81;4993108;28;20201;-46
2023/03/06 08:07:23;;;;;;;8.65;5.15;;;;;;;30.33;34.26;94151.63;4993290;28;20697;-49
2023/03/06 08:09:51;;;;;;;5.95;5.35;;;;;;;30.41;34.41;94166.88;4993354;28;20263;-46
2023/03/06 08:12:18;;;;;;;6.93;5.88;;;;;;;30.44;33.73;94157.59;4993183;28;20286;-50
2023/03/06 08:14:44;;;;;;;6.72;6.03;;;;;;;30.44;33.94;94153.13;4993150;28;20193;-47
2023/03/06 08:17:11;;;;;;;6.70;5.65;;;;;;;30.44;34.03;94153.13;4993308;28;20216;-52
2023/03/06 08:19:38;;;;;;;10.68;5.53;;;;;;;30.42;33.66;94149.97;4993286;28;20196;-45
2023/03/06 08:22:06;;;;;;;6.20;5.50;;;;;;;30.41;33.68;94150.25;4992953;28;20197;-48
2023/03/06 08:24:33;;;;;;;6.00;5.40;;;;;;;30.29;33.84;94139.25;4993073;28;20189;-51
2023/03/06 08:27:01;;;;;;;8.98;5.40;;;;;;;30.19;34.27;94140.91;4992844;28;20244;-46
2023/03/06 08:29:28;;;;;;;7.00;6.07;;;;;;;30.15;33.90;94142.50;4993197;28;20189;-50
2023/03/06 08:31:54;;;;;;;6.85;6.18;;;;;;;30.06;34.30;94148.59;4993175;28;20189;-47
2023/03/06 08:34:24;;;;;;;10.23;6.35;;;;;;;29.97;34.15;94145.75;4993171;28;20590;-46
2023/03/06 08:36:51;;;;;;;7.68;5.80;;;;;;;29.87;34.01;94148.41;4992657;28;20804;-48
2023/03/06 08:39:19;;;;;;;8.45;6.53;;;;;;;29.74;34.01;94147.94;4992678;28;20201;-45
2023/03/06 08:41:46;;;;;;;9.68;6.28;;;;;;;29.61;34.04;94156.44;4992884;28;20185;-51
2023/03/06 08:44:15;;;;;;;8.60;6.15;;;;;;;29.42;34.31;94150.94;4992767;28;20190;-53
2023/03/06 08:46:42;;;;;;;9.25;6.28;;;;;;;29.22;34.64;94159.69;4992625;28;20193;-54
2023/03/06 08:49:12;;;;;;;6.97;6.00;;;;;;;28.99;34.53;94149.72;4992951;28;20227;-48
2023/03/06 08:51:38;;;;;;;7.82;6.05;;;;;;;28.87;34.52;94144.72;4992270;28;20201;-50
2023/03/06 08:54:06;;;;;;;7.60;6.07;;;;;;;28.70;34.77;94147.63;4992385;28;20741;-48
2023/03/06 08:56:34;;;;;;;8.63;6.55;;;;;;;28.51;34.80;94141.31;4992138;28;20600;-48
2023/03/06 08:59:04;;;;;;;10.18;5.95;;;;;;;28.42;34.82;94137.63;4992574;28;20193;-48
2023/03/06 09:01:35;;;;;;;8.00;6.80;;;;;;;28.24;34.59;94142.31;4992076;28;20228;-55
2023/03/06 09:04:04;;;;;;;8.65;5.95;;;;;;;28.07;34.73;94133.09;4992664;28;20185;-49
2023/03/06 09:06:33;;;;;;;7.65;6.60;;;;;;;27.86;34.42;94138.28;4992020;28;20609;-51
2023/03/06 09:09:01;;;;;;;9.52;6.60;;;;;;;27.66;34.52;94133.72;4992494;28;20201;-55
2023/03/06 09:11:28;;;;;;;11.52;7.00;;;;;;;27.44;34.79;94139.16;4992286;28;20185;-50
2023/03/06 09:13:56;;;;;;;8.00;6.63;;;;;;;27.25;34.35;94138.81;4992259;28;20534;-49
2023/03/06 09:16:25;;;;;;;8.65;6.88;;;;;;;27.06;34.47;94135.00;4992019;28;20236;-48
2023/03/06 09:18:53;;;;;;;11.48;8.00;;;;;;;26.83;33.77;94130.13;4991789;28;20201;-48
2023/03/06 09:21:21;;;;;;;10.15;7.43;;;;;;;26.57;33.88;94129.16;4991928;28;20193;-48
2023/03/06 09:23:48;;;;;;;12.15;6.93;;;;;;;26.40;33.71;94131.88;4991699;28;20672;-46
2023/03/06 09:26:15;;;;;;;9.55;6.78;;;;;;;26.17;34.03;94130.38;4983978;28;20291;-47
2023/03/06 09:28:42;;;;;;;8.70;6.85;;;;;;;25.91;33.96;94137.97;4991770;28;20192;-52
2023/03/06 09:31:10;;;;;;;9.07;6.75;;;;;;;25.64;34.12;94124.81;4991475;28;20576;-49
2023/03/06 09:33:37;;;;;;;12.10;6.72;;;;;;;25.38;34.23;94126.34;4991790;28;20659;-47
2023/03/06 09:36:06;;;;;;;8.88;6.70;;;;;;;25.11;33.88;94128.88;4991808;28;20186;-48
2023/03/06 09:38:33;;;;;;;9.55;7.63;;;;;;;24.86;33.96;94131.09;4991896;28;20224;-46
2023/03/06 09:41:08;;;;;;;10.18;6.32;;;;;;;24.59;34.32;94129.16;4991658;28;20212;-49
2023/03/06 09:43:38;;;;;;;8.88;6.88;;;;;;;24.34;34.11;94123.50;4991361;28;20200;-49
2023/03/06 09:46:18;;;;;;;9.63;7.05;;;;;;;24.10;34.22;94126.25;4991275;28;20208;-45
2023/03/06 09:48:57;;;;;;;9.07;6.55;;;;;;;23.85;34.30;94118.75;4991464;28;20196;-47
2023/03/06 09:51:34;;;;;;;9.18;7.25;;;;;;;23.62;34.50;94117.00;4991410;28;20185;-46
2023/03/06 09:54:11;;;;;;;9.98;7.00;;;;;;;23.42;34.65;94101.72;4990745;28;20193;-48
2023/03/06 09:56:38;;;;;;;11.48;7.15;;;;;;;23.21;34.54;94104.94;4991396;28;20228;-47
2023/03/06 09:59:12;;;;;;;9.27;7.35;;;;;;;23.01;34.68;94100.91;4991229;28;20248;-47
2023/03/06 10:01:42;;;;;;;11.90;7.82;;;;;;;22.78;34.74;94090.47;4990826;28;20291;-46
2023/03/06 10:04:21;;;;;;;11.43;7.43;;;;;;;22.68;34.74;94092.84;4990564;28;20208;-49
2023/03/06 10:06:52;;;;;;;8.73;6.97;;;;;;;22.48;34.82;94085.38;4990765;28;20192;-49
2023/03/06 10:09:24;;;;;;;10.45;7.53;;;;;;;22.40;34.85;94094.31;4991174;28;20288;-48
2023/03/06 10:11:57;;;;;;;14.50;7.38;;;;;;;22.32;34.81;94092.03;4990567;28;20217;-50
2023/03/06 10:14:31;;;;;;;11.05;7.18;;;;;;;22.14;35.15;94087.69;4991059;28;20269;-46
2023/03/06 10:16:58;;;;;;;11.15;8.05;;;;;;;22.05;35.07;94096.81;4990407;28;20228;-47
2023/03/06 10:19:33;;;;;;;11.65;7.68;;;;;;;22.03;35.33;94086.63;4990500;28;20189;-46
2023/03/06 10:22:04;;;;;;;10.95;6.97;;;;;;;22.02;35.21;94090.28;4990353;28;20334;-48
2023/03/06 10:24:44;;;;;;;8.68;7.03;;;;;;;22.01;35.30;94078.25;4990473;28;20636;-48
2023/03/06 10:27:20;;;;;;;9.57;7.65;;;;;;;22.12;35.24;94086.31;4990259;28;20646;-47
2023/03/06 10:29:53;;;;;;;10.27;7.50;;;;;;;22.20;35.19;94086.03;4990383;28;20287;-46
2023/03/06 10:32:27;;;;;;;8.32;7.45;;;;;;;22.27;35.08;94087.50;4990044;28;20193;-47
2023/03/06 10:34:57;;;;;;;8.73;6.57;;;;;;;22.36;35.14;94074.94;4990315;28;20661;-48
2023/03/06 10:37:28;;;;;;;8.80;7.00;;;;;;;22.42;35.09;94068.84;4990313;28;20709;-52
2023/03/06 10:40:01;;;;;;;11.20;6.80;;;;;;;22.51;35.04;94057.03;4990447;28;20561;-49
2023/03/06 10:42:28;;;;;;;9.85;6.65;;;;;;;22.57;35.10;94057.16;4990262;28;20270;-49
2023/03/06 10:45:14;;;;;;;8.32;6.50;;;;;;;22.58;35.08;94049.09;4990332;28;20200;-51
2023/03/06 10:47:42;;;;;;;8.55;6.40;;;;;;;22.52;35.18;94055.22;4990110;28;20224;-50
2023/03/06 10:50:23;;;;;;;9.63;7.03;;;;;;;22.44;35.37;94058.97;4989991;28;20685;-51
2023/03/06 10:53:01;;;;;;;9.57;6.20;;;;;;;22.45;35.21;94044.13;4990215;28;20652;-55
2023/03/06 10:55:30;;;;;;;8.52;6.78;;;;;;;22.50;35.11;94034.63;4989470;28;20239;-49
2023/03/06 10:57:57;;;;;;;6.88;6.18;;;;;;;22.60;35.48;94030.66;4989844;28;20236;-51
2023/03/06 11:00:32;;;;;;;7.38;6.50;;;;;;;22.65;35.18;94035.97;4989569;28;20231;-46
2023/03/06 11:03:21;;;;;;;7.80;6.38;;;;;;;22.61;35.27;94035.63;4990309;28;20211;-47
2023/03/06 11:06:12;;;;;;;7.95;5.93;;;;;;;22.58;35.22;94027.47;4984726;28;20197;-55
2023/03/06 11:08:42;;;;;;;8.20;6.40;;;;;;;22.56;35.43;94032.13;4990680;28;20223;-52
2023/03/06 11:11:12;;;;;;;8.23;5.97;;;;;;;22.58;35.42;94038.66;4990257;28;20200;-54
2023/03/06 11:13:41;;;;;;;6.85;5.70;;;;;;;22.55;35.39;94031.31;4990502;28;20581;-56
2023/03/06 11:16:18;;;;;;;6.88;5.57;;;;;;;22.51;35.12;94017.97;4989466;28;20716;-55
2023/03/06 11:18:57;;;;;;;7.18;5.75;;;;;;;22.52;35.06;94008.31;4990130;28;20771;-54
2023/03/06 11:21:29;;;;;;;7.70;6.00;;;;;;;22.47;35.42;94009.00;4990474;28;20188;-53
2023/03/06 11:24:02;;;;;;;8.40;6.15;;;;;;;22.47;35.35;94009.00;4990307;28;20259;-52
2023/03/06 11:26:43;;;;;;;9.20;5.88;;;;;;;22.48;35.09;94000.16;4990118;28;20260;-56
2023/03/06 11:29:34;;;;;;;7.40;6.18;;;;;;;22.48;35.23;93976.72;4990029;28;20268;-55
2023/03/06 11:32:08;;;;;;;7.07;5.65;;;;;;;22.54;35.18;93980.25;4990156;28;20654;-53
2023/03/06 11:34:44;;;;;;;7.78;5.72;;;;;;;22.55;35.40;93979.22;4990537;28;20196;-54
2023/03/06 11:37:20;;;;;;;6.32;5.22;;;;;;;22.45;35.27;93974.59;4990291;28;20216;-54
2023/03/06 11:39:56;;;;;;;5.43;4.60;;;;;;;22.56;35.15;93980.78;4990268;28;20259;-55
2023/03/06 11:42:28;;;;;;;6.72;5.85;;;;;;;22.63;35.20;93972.84;4989896;28;20654;-56